Time;durP1;ratioP1;P1;durP2;ratioP2;P2;SDS_P1;SDS_P2;PMS_P1;PMS_P2;Temp;Humidity;BMP_temperature;BMP_pressure;BME280_temperature;BME280_humidity;BME280_pressure;Samples;Min_cycle;Max_cycle;Signal;HPM_P1;HPM_P2
2023/04/08 00:01:37;;;;;;;99.32;32.63;;;3.60;99.90;;;;;;5057365;28;20024;-82
2023/04/08 00:04:03;;;;;;;94.82;33.35;;;3.70;99.90;;;;;;5073185;28;20029;-82
2023/04/08 00:06:30;;;;;;;107.85;34.00;;;3.70;99.90;;;;;;5056694;28;20032;-82
2023/04/08 00:08:56;;;;;;;107.93;34.42;;;3.70;99.90;;;;;;5056906;28;20036;-83
2023/04/08 00:11:22;;;;;;;112.47;34.45;;;3.70;99.90;;;;;;5073261;28;20024;-82
2023/04/08 00:13:47;;;;;;;101.10;33.45;;;3.70;99.90;;;;;;5073710;28;20032;-82
2023/04/08 00:16:13;;;;;;;95.63;34.45;;;3.80;99.90;;;;;;5056841;28;20036;-82
2023/04/08 00:18:40;;;;;;;106.40;35.05;;;3.80;99.90;;;;;;5056908;28;20041;-82
2023/04/08 00:21:05;;;;;;;104.53;34.97;;;3.80;99.90;;;;;;5056105;28;20029;-83
2023/04/08 00:23:31;;;;;;;111.75;35.70;;;3.90;99.90;;;;;;5056555;28;20521;-82
2023/04/08 00:25:57;;;;;;;150.93;39.95;;;4.00;99.90;;;;;;5072988;28;20028;-82
2023/04/08 00:28:22;;;;;;;306.90;43.33;;;4.00;99.90;;;;;;5056697;28;20036;-83
2023/04/08 00:30:48;;;;;;;210.30;39.50;;;4.10;99.90;;;;;;5056066;28;20024;-82
2023/04/08 00:33:14;;;;;;;360.65;47.42;;;4.10;99.90;;;;;;5056028;28;20082;-83
2023/04/08 00:35:39;;;;;;;225.85;40.38;;;4.10;99.90;;;;;;5056160;28;20071;-83
2023/04/08 00:38:06;;;;;;;267.70;41.60;;;4.20;99.90;;;;;;5055332;28;20063;-82
2023/04/08 00:40:33;;;;;;;241.52;41.60;;;4.10;99.90;;;;;;5055839;28;20032;-83
2023/04/08 00:42:59;;;;;;;216.75;41.45;;;4.20;99.90;;;;;;5072200;28;20379;-83
2023/04/08 00:45:25;;;;;;;200.25;38.72;;;4.20;99.90;;;;;;5056437;28;20029;-83
2023/04/08 00:47:51;;;;;;;219.35;39.10;;;4.20;99.90;;;;;;5074030;28;20048;-83
2023/04/08 00:50:17;;;;;;;270.25;44.22;;;4.20;99.90;;;;;;5089977;28;20032;-83
2023/04/08 00:52:43;;;;;;;363.85;50.25;;;4.20;99.90;;;;;;5055774;28;20617;-83
2023/04/08 00:55:09;;;;;;;328.52;44.40;;;4.20;99.90;;;;;;5051191;28;20090;-83
2023/04/08 00:57:35;;;;;;;530.25;54.13;;;4.20;99.90;;;;;;5055544;28;20028;-82
2023/04/08 01:00:04;;;;;;;313.88;44.17;;;4.30;99.90;;;;;;5055986;28;20032;-83
2023/04/08 01:02:52;;;;;;;223.07;41.83;;;4.30;99.90;;;;;;5055837;28;20060;-83
2023/04/08 01:05:24;;;;;;;257.92;41.78;;;4.30;99.90;;;;;;5072719;28;20480;-83
2023/04/08 01:07:50;;;;;;;231.00;42.88;;;4.30;99.90;;;;;;5056594;28;20033;-83
2023/04/08 01:10:27;;;;;;;196.02;39.70;;;4.40;99.90;;;;;;5055713;28;20111;-83
2023/04/08 01:13:00;;;;;;;213.95;40.20;;;4.40;99.90;;;;;;5055770;28;20036;-83
2023/04/08 01:15:28;;;;;;;179.25;41.42;;;4.40;99.90;;;;;;5070188;28;20028;-82
2023/04/08 01:17:55;;;;;;;142.55;39.65;;;4.40;99.90;;;;;;5075501;28;20074;-83
2023/04/08 01:20:27;;;;;;;136.85;37.33;;;4.40;99.90;;;;;;5072128;28;20036;-83
2023/04/08 01:22:56;;;;;;;131.43;36.25;;;4.40;99.90;;;;;;5055434;28;20025;-82
2023/04/08 01:25:26;;;;;;;123.38;35.60;;;4.40;99.90;;;;;;5072173;28;20028;-82
2023/04/08 01:27:56;;;;;;;142.25;38.75;;;4.40;99.90;;;;;;5071760;28;20119;-83
2023/04/08 01:30:24;;;;;;;119.67;37.53;;;4.40;99.90;;;;;;5072211;28;20074;-82
2023/04/08 01:32:53;;;;;;;136.15;38.00;;;4.50;99.90;;;;;;5072875;28;20077;-82
2023/04/08 01:35:21;;;;;;;119.70;36.53;;;4.50;99.90;;;;;;5071466;28;20058;-83
2023/04/08 01:37:49;;;;;;;145.10;40.63;;;4.50;99.90;;;;;;5055400;28;20365;-83
2023/04/08 01:40:17;;;;;;;136.65;39.65;;;4.50;99.90;;;;;;5055646;28;20071;-83
2023/04/08 01:42:46;;;;;;;128.77;40.58;;;4.50;99.90;;;;;;5055764;28;20421;-83
2023/04/08 01:45:12;;;;;;;149.35;41.95;;;4.60;99.90;;;;;;5089149;28;20056;-82
2023/04/08 01:47:39;;;;;;;128.57;41.22;;;4.60;99.90;;;;;;5072557;28;20046;-82
2023/04/08 01:50:08;;;;;;;137.50;41.28;;;4.60;99.90;;;;;;5071823;28;20487;-83
2023/04/08 01:52:36;;;;;;;130.20;42.20;;;4.60;99.90;;;;;;5055098;28;20555;-83
2023/04/08 01:55:02;;;;;;;153.77;44.45;;;4.60;99.90;;;;;;5055353;28;20414;-83
2023/04/08 01:57:32;;;;;;;150.50;43.85;;;4.60;99.90;;;;;;5055434;28;20384;-83
2023/04/08 02:00:06;;;;;;;134.40;42.28;;;4.50;99.90;;;;;;5055595;28;20031;-83
2023/04/08 02:02:46;;;;;;;146.73;43.35;;;4.60;99.90;;;;;;5072249;28;20035;-83
2023/04/08 02:05:13;;;;;;;140.52;42.38;;;4.50;99.90;;;;;;5055151;28;20032;-83
2023/04/08 02:07:38;;;;;;;166.57;45.47;;;4.60;99.90;;;;;;5072113;28;20017;-83
2023/04/08 02:10:05;;;;;;;151.55;42.42;;;4.50;99.90;;;;;;5055350;28;20029;-83
2023/04/08 02:12:32;;;;;;;142.23;42.90;;;4.60;99.90;;;;;;5055682;28;20029;-83
2023/04/08 02:14:58;;;;;;;136.85;43.95;;;4.60;99.90;;;;;;5055311;28;20055;-83
2023/04/08 02:17:27;;;;;;;137.55;43.42;;;4.60;99.90;;;;;;5071506;28;20056;-83
2023/04/08 02:20:09;;;;;;;140.38;45.28;;;4.60;99.90;;;;;;5054904;28;20434;-82
2023/04/08 02:22:50;;;;;;;142.65;44.60;;;4.60;99.90;;;;;;5065297;28;20020;-83
2023/04/08 02:25:20;;;;;;;141.33;42.70;;;4.60;99.90;;;;;;5070376;28;20029;-82
2023/04/08 02:27:50;;;;;;;143.00;43.17;;;4.60;99.90;;;;;;5071238;28;20021;-82
2023/04/08 02:30:18;;;;;;;135.20;41.65;;;4.50;99.90;;;;;;5055266;28;20386;-83
2023/04/08 02:32:45;;;;;;;143.43;44.50;;;4.60;99.90;;;;;;5075472;28;20108;-83
2023/04/08 02:35:13;;;;;;;141.40;44.30;;;4.60;99.90;;;;;;5092795;28;20086;-83
2023/04/08 02:37:39;;;;;;;156.98;45.92;;;4.50;99.90;;;;;;5059096;28;20020;-84
2023/04/08 02:40:24;;;;;;;147.43;46.78;;;4.50;99.90;;;;;;5075017;28;20043;-83
2023/04/08 02:42:50;;;;;;;153.75;45.53;;;4.50;99.90;;;;;;5058763;28;20078;-84
2023/04/08 02:45:17;;;;;;;163.82;48.13;;;4.50;99.90;;;;;;5058601;28;20090;-83
2023/04/08 02:47:43;;;;;;;153.38;44.95;;;4.50;99.90;;;;;;5058613;28;20182;-83
2023/04/08 02:50:09;;;;;;;151.90;46.05;;;4.50;99.90;;;;;;5074825;28;20082;-83
2023/04/08 02:52:50;;;;;;;157.23;46.53;;;4.50;99.90;;;;;;5057841;28;20108;-83
2023/04/08 02:59:03;;;;;;;165.52;46.25;;;4.40;99.90;;;;;;5076379;28;20042;-83
2023/04/08 03:01:30;;;;;;;155.85;46.25;;;4.40;99.90;;;;;;5074304;28;20028;-84
2023/04/08 03:03:55;;;;;;;146.70;46.70;;;4.40;99.90;;;;;;5058572;28;20035;-84
2023/04/08 03:06:21;;;;;;;161.45;48.75;;;4.40;99.90;;;;;;5075287;28;20024;-83
2023/04/08 03:08:47;;;;;;;162.48;47.38;;;4.40;99.90;;;;;;5076537;28;20016;-83
2023/04/08 03:11:12;;;;;;;168.52;48.08;;;4.40;99.90;;;;;;5058347;28;20678;-83
2023/04/08 03:13:41;;;;;;;163.07;47.40;;;4.40;99.90;;;;;;5058427;28;20491;-83
2023/04/08 03:16:07;;;;;;;167.30;49.88;;;4.40;99.90;;;;;;5057750;28;20033;-83
2023/04/08 03:18:33;;;;;;;164.43;48.97;;;4.40;99.90;;;;;;5074427;28;20137;-83
2023/04/08 03:21:00;;;;;;;182.55;48.20;;;4.30;99.90;;;;;;5058169;28;20442;-83
2023/04/08 03:23:25;;;;;;;183.73;47.50;;;4.30;99.90;;;;;;5056948;28;20041;-83
2023/04/08 03:25:51;;;;;;;152.82;47.58;;;4.30;99.90;;;;;;5074362;28;20468;-83
2023/04/08 03:28:17;;;;;;;167.20;48.42;;;4.20;99.90;;;;;;5057618;28;20457;-83
2023/04/08 03:30:42;;;;;;;177.98;49.33;;;4.30;99.90;;;;;;5074747;28;20025;-84
2023/04/08 03:33:08;;;;;;;182.65;49.70;;;4.30;99.90;;;;;;5057607;28;20020;-83
2023/04/08 03:35:34;;;;;;;164.57;48.17;;;4.20;99.90;;;;;;5057813;28;20471;-83
2023/04/08 03:38:00;;;;;;;180.93;50.45;;;4.30;99.90;;;;;;5054460;28;20021;-83
2023/04/08 03:40:25;;;;;;;174.93;51.05;;;4.30;99.90;;;;;;5091355;28;20031;-83
2023/04/08 03:42:51;;;;;;;184.13;50.28;;;4.30;99.90;;;;;;5073153;28;20502;-83
2023/04/08 03:45:17;;;;;;;170.02;49.15;;;4.30;99.90;;;;;;5073963;28;20094;-84
2023/04/08 03:47:42;;;;;;;174.02;48.63;;;4.30;99.90;;;;;;5057187;28;20364;-83
2023/04/08 03:50:08;;;;;;;179.48;50.65;;;4.30;99.90;;;;;;5057331;28;20086;-84
2023/04/08 03:52:34;;;;;;;171.23;49.95;;;4.40;99.90;;;;;;5057583;28;20028;-83
2023/04/08 03:55:00;;;;;;;173.52;50.30;;;4.40;99.90;;;;;;5057326;28;20050;-83
2023/04/08 03:57:25;;;;;;;148.15;47.10;;;4.40;99.90;;;;;;5057239;28;20430;-84
2023/04/08 03:59:51;;;;;;;155.68;46.17;;;4.40;99.90;;;;;;5057825;28;20051;-83
2023/04/08 04:02:17;;;;;;;172.65;45.90;;;4.40;99.90;;;;;;5073922;28;20024;-83
2023/04/08 04:04:43;;;;;;;173.05;48.10;;;4.40;99.90;;;;;;5073442;28;20039;-83
2023/04/08 04:07:08;;;;;;;139.48;44.92;;;4.40;99.90;;;;;;5075003;28;20051;-83
2023/04/08 04:09:34;;;;;;;145.13;46.50;;;4.50;99.90;;;;;;5057042;28;20024;-83
2023/04/08 04:12:00;;;;;;;145.23;47.80;;;4.40;99.90;;;;;;5056738;28;20022;-84
2023/04/08 04:14:34;;;;;;;151.20;46.38;;;4.40;99.90;;;;;;5075044;28;20024;-84
2023/04/08 04:17:00;;;;;;;163.98;47.67;;;4.40;99.90;;;;;;5056972;28;20028;-84
2023/04/08 04:19:30;;;;;;;148.95;46.85;;;4.40;99.90;;;;;;5073802;28;20032;-84
2023/04/08 04:21:55;;;;;;;152.57;47.75;;;4.40;99.90;;;;;;5056734;28;20032;-83
2023/04/08 04:24:21;;;;;;;157.07;49.45;;;4.40;99.90;;;;;;5056309;28;20742;-83
2023/04/08 04:26:47;;;;;;;150.50;46.30;;;4.40;99.90;;;;;;5056609;28;20025;-84
2023/04/08 04:29:12;;;;;;;171.65;47.17;;;4.40;99.90;;;;;;5056400;28;20521;-83
2023/04/08 04:31:38;;;;;;;159.57;48.08;;;4.30;99.90;;;;;;5073404;28;20272;-83
2023/04/08 04:34:04;;;;;;;158.57;46.40;;;4.30;99.90;;;;;;5056229;28;20028;-84
2023/04/08 04:36:31;;;;;;;165.85;48.83;;;4.30;99.90;;;;;;5073014;28;20107;-83
2023/04/08 04:39:09;;;;;;;168.38;47.53;;;4.30;99.90;;;;;;5073744;28;20124;-83
2023/04/08 04:41:39;;;;;;;174.77;49.60;;;4.30;99.90;;;;;;5056500;28;20028;-83
2023/04/08 04:44:05;;;;;;;164.73;47.55;;;4.30;99.90;;;;;;5055960;28;20744;-84
2023/04/08 04:46:31;;;;;;;148.63;45.75;;;4.20;99.90;;;;;;5056681;28;20468;-83
2023/04/08 04:48:57;;;;;;;161.77;49.50;;;4.20;99.90;;;;;;5065897;28;20051;-86
2023/04/08 04:51:22;;;;;;;165.68;48.85;;;4.20;99.90;;;;;;5058067;28;20039;-86
2023/04/08 04:53:48;;;;;;;170.02;49.38;;;4.10;99.90;;;;;;5055423;28;20055;-86
2023/04/08 04:56:14;;;;;;;166.30;50.45;;;4.10;99.90;;;;;;5073528;28;20111;-86
2023/04/08 04:58:41;;;;;;;180.85;50.75;;;4.10;99.90;;;;;;5074104;28;20032;-86
2023/04/08 05:01:06;;;;;;;175.27;50.17;;;4.10;99.90;;;;;;5056955;28;20047;-87
2023/04/08 05:03:32;;;;;;;157.15;49.40;;;4.00;99.90;;;;;;5056427;28;20048;-86
2023/04/08 05:05:58;;;;;;;168.95;49.85;;;4.00;99.90;;;;;;5057567;28;20229;-86
2023/04/08 05:08:24;;;;;;;158.10;51.10;;;4.00;99.90;;;;;;5056615;28;20502;-86
2023/04/08 05:10:50;;;;;;;182.25;49.80;;;4.00;99.90;;;;;;5073573;28;20043;-86
2023/04/08 05:13:16;;;;;;;178.88;52.90;;;4.00;99.90;;;;;;5056898;28;20017;-86
2023/04/08 05:15:44;;;;;;;168.05;50.63;;;4.00;99.90;;;;;;5056647;28;20371;-86
2023/04/08 05:18:10;;;;;;;166.80;52.30;;;4.10;99.90;;;;;;5057313;28;20017;-87
2023/04/08 05:20:36;;;;;;;177.10;51.78;;;4.10;99.90;;;;;;5056453;28;20077;-86
2023/04/08 05:23:02;;;;;;;183.20;53.72;;;4.10;99.90;;;;;;5056537;28;20024;-87
2023/04/08 05:25:29;;;;;;;160.60;50.75;;;4.10;99.90;;;;;;5063483;28;20070;-85
2023/04/08 05:27:55;;;;;;;160.07;50.58;;;4.20;99.90;;;;;;5062050;28;20380;-86
2023/04/08 05:30:21;;;;;;;155.95;50.80;;;4.10;99.90;;;;;;5062059;28;20024;-86
2023/04/08 05:32:47;;;;;;;164.60;49.40;;;4.00;99.90;;;;;;5077139;28;20077;-87
2023/04/08 05:35:13;;;;;;;164.68;50.63;;;4.00;99.90;;;;;;5043719;28;20024;-86
2023/04/08 05:37:38;;;;;;;160.07;50.55;;;3.90;99.90;;;;;;5073201;28;20032;-86
2023/04/08 05:40:05;;;;;;;164.48;51.72;;;3.80;99.90;;;;;;5052788;28;20021;-86
2023/04/08 05:42:31;;;;;;;175.48;52.40;;;3.80;99.90;;;;;;5048955;28;20029;-86
2023/04/08 05:44:57;;;;;;;177.57;51.72;;;3.90;99.90;;;;;;5053962;28;20375;-86
2023/04/08 05:47:23;;;;;;;176.07;52.95;;;3.80;99.90;;;;;;5050533;28;20099;-85
2023/04/08 05:49:49;;;;;;;159.23;51.42;;;3.90;99.90;;;;;;5064742;28;20036;-86
2023/04/08 05:52:15;;;;;;;173.88;54.38;;;3.90;99.90;;;;;;5052685;28;20550;-86
2023/04/08 05:54:44;;;;;;;187.10;56.05;;;4.00;99.90;;;;;;5049013;28;20467;-86
2023/04/08 05:57:10;;;;;;;183.73;56.60;;;4.10;99.90;;;;;;5052516;28;20387;-89
2023/04/08 05:59:36;;;;;;;169.07;55.05;;;4.20;99.90;;;;;;5049959;28;20039;-90
2023/04/08 06:02:02;;;;;;;188.38;58.35;;;4.30;99.90;;;;;;5068418;28;20068;-89
2023/04/08 06:04:29;;;;;;;197.10;63.05;;;4.30;99.90;;;;;;5065772;28;20058;-89
2023/04/08 06:06:58;;;;;;;202.13;62.47;;;4.40;99.90;;;;;;5062586;28;20034;-88
2023/04/08 06:09:25;;;;;;;173.45;59.30;;;4.50;99.90;;;;;;5075902;28;20075;-89
2023/04/08 06:11:51;;;;;;;191.13;57.03;;;4.50;99.90;;;;;;5049185;28;20029;-89
2023/04/08 06:14:17;;;;;;;163.93;54.67;;;4.60;99.90;;;;;;5067907;28;20035;-90
2023/04/08 06:16:43;;;;;;;172.73;57.67;;;4.70;99.90;;;;;;5057615;28;20372;-88
2023/04/08 06:19:09;;;;;;;164.73;55.13;;;4.80;99.90;;;;;;5056385;28;20039;-89
2023/04/08 06:21:35;;;;;;;167.45;56.28;;;4.90;99.90;;;;;;5050055;28;20025;-89
2023/04/08 06:24:00;;;;;;;157.90;54.88;;;4.90;99.90;;;;;;5075869;28;20029;-90
2023/04/08 06:26:26;;;;;;;147.10;53.58;;;4.90;99.90;;;;;;5052213;28;20079;-89
2023/04/08 06:28:52;;;;;;;150.32;55.63;;;4.80;99.90;;;;;;5054724;28;20078;-89
2023/04/08 06:31:18;;;;;;;151.13;55.90;;;4.90;99.90;;;;;;5051635;28;20630;-88
2023/04/08 06:33:44;;;;;;;144.45;53.40;;;4.90;99.90;;;;;;5064574;28;20021;-89
2023/04/08 06:36:12;;;;;;;145.93;53.78;;;4.90;99.90;;;;;;5071300;28;20037;-89
2023/04/08 06:38:38;;;;;;;159.50;56.65;;;4.90;99.90;;;;;;5075947;28;20436;-89
2023/04/08 06:41:05;;;;;;;135.75;52.40;;;5.00;99.90;;;;;;5074303;28;20061;-89
2023/04/08 06:43:31;;;;;;;153.85;56.63;;;5.00;99.90;;;;;;5073316;28;20037;-89
2023/04/08 06:45:57;;;;;;;150.05;54.80;;;5.10;99.90;;;;;;5057109;28;20036;-89
2023/04/08 06:48:29;;;;;;;139.10;54.13;;;5.20;99.90;;;;;;5073697;28;20044;-90
2023/04/08 06:50:59;;;;;;;130.02;50.38;;;5.20;99.90;;;;;;5050082;28;20074;-90
2023/04/08 06:53:28;;;;;;;126.80;48.45;;;5.30;99.90;;;;;;5071744;28;20070;-89
2023/04/08 06:55:54;;;;;;;117.40;50.00;;;5.30;99.90;;;;;;5068920;28;20479;-89
2023/04/08 06:58:19;;;;;;;111.00;47.08;;;5.40;99.90;;;;;;5075854;28;20532;-89
2023/04/08 07:00:46;;;;;;;113.10;48.58;;;5.50;99.90;;;;;;5071094;28;20021;-90
2023/04/08 07:03:12;;;;;;;109.45;46.05;;;5.60;99.90;;;;;;5060646;28;20025;-90
2023/04/08 07:05:38;;;;;;;99.25;45.28;;;5.80;99.90;;;;;;5071089;28;20039;-90
2023/04/08 07:08:07;;;;;;;90.32;41.35;;;5.70;99.90;;;;;;5069647;28;20025;-89
2023/04/08 07:10:34;;;;;;;90.68;42.30;;;5.90;99.90;;;;;;5056660;28;20480;-89
2023/04/08 07:13:00;;;;;;;73.90;37.78;;;6.00;99.90;;;;;;5077460;28;20476;-90
2023/04/08 07:15:26;;;;;;;69.30;35.35;;;6.00;99.90;;;;;;5058767;28;20039;-90
2023/04/08 07:17:55;;;;;;;68.25;33.40;;;6.10;99.90;;;;;;5070722;28;20411;-90
2023/04/08 07:20:21;;;;;;;55.72;30.67;;;6.30;99.90;;;;;;5052701;28;20040;-89
2023/04/08 07:22:47;;;;;;;51.20;27.38;;;6.20;99.90;;;;;;5055843;28;20506;-89
2023/04/08 07:25:13;;;;;;;46.90;26.30;;;6.30;99.90;;;;;;5066367;28;20053;-89
2023/04/08 07:27:39;;;;;;;43.00;24.02;;;6.50;99.90;;;;;;5065195;28;20036;-89
2023/04/08 07:30:06;;;;;;;41.75;23.42;;;6.60;99.90;;;;;;5073669;28;20468;-89
2023/04/08 07:32:33;;;;;;;35.40;22.90;;;6.70;99.90;;;;;;5057476;28;20036;-90
2023/04/08 07:35:00;;;;;;;43.28;24.55;;;6.80;99.90;;;;;;5050882;28;20056;-90
2023/04/08 07:37:29;;;;;;;44.75;22.50;;;6.80;99.90;;;;;;5074774;28;20805;-89
2023/04/08 07:39:55;;;;;;;34.70;20.45;;;6.80;99.90;;;;;;5053848;28;20035;-90
2023/04/08 07:42:21;;;;;;;34.33;21.48;;;6.80;99.90;;;;;;5070466;28;20040;-90
2023/04/08 07:44:46;;;;;;;34.20;21.67;;;6.90;99.90;;;;;;5057731;28;20028;-90
2023/04/08 07:47:12;;;;;;;37.55;22.23;;;6.90;99.90;;;;;;5051046;28;20020;-90
2023/04/08 07:49:38;;;;;;;32.88;20.13;;;7.10;99.90;;;;;;5053444;28;20029;-90
2023/04/08 07:52:07;;;;;;;32.20;19.23;;;7.40;99.90;;;;;;5056205;28;20027;-89
2023/04/08 07:54:33;;;;;;;33.50;19.10;;;7.60;99.90;;;;;;5070419;28;20040;-89
2023/04/08 07:57:00;;;;;;;29.60;19.23;;;7.50;99.90;;;;;;5059980;28;20036;-89
2023/04/08 07:59:27;;;;;;;31.42;19.38;;;7.50;99.90;;;;;;5056444;28;20547;-89
2023/04/08 08:01:53;;;;;;;27.63;17.75;;;7.60;99.90;;;;;;5076600;28;20020;-89
2023/04/08 08:04:19;;;;;;;28.45;17.02;;;7.70;99.90;;;;;;5061218;28;20438;-89
2023/04/08 08:06:46;;;;;;;26.35;16.02;;;7.70;99.90;;;;;;5060936;28;20032;-89
2023/04/08 08:09:12;;;;;;;22.10;14.68;;;8.00;99.90;;;;;;5062907;28;20024;-90
2023/04/08 08:11:38;;;;;;;22.80;15.52;;;8.10;99.90;;;;;;5062989;28;20028;-89
2023/04/08 08:14:04;;;;;;;26.95;16.33;;;8.30;99.90;;;;;;5060764;28;20391;-89
2023/04/08 08:16:32;;;;;;;25.85;15.48;;;8.30;99.90;;;;;;5058885;28;20422;-88
2023/04/08 08:18:58;;;;;;;22.75;14.25;;;8.10;99.90;;;;;;5057123;28;20113;-88
2023/04/08 08:21:25;;;;;;;18.65;13.13;;;8.10;99.90;;;;;;5074014;28;20029;-89
2023/04/08 08:23:52;;;;;;;23.20;14.60;;;8.20;99.90;;;;;;5056664;28;20108;-89
2023/04/08 08:26:27;;;;;;;21.45;14.55;;;8.30;99.90;;;;;;5058141;28;20082;-88
2023/04/08 08:28:56;;;;;;;20.30;13.52;;;8.50;99.90;;;;;;5064162;28;20052;-88
2023/04/08 08:31:31;;;;;;;21.38;13.30;;;8.70;99.90;;;;;;5057285;28;20024;-88
2023/04/08 08:33:56;;;;;;;24.25;13.55;;;8.90;99.90;;;;;;5057314;28;20024;-89
2023/04/08 08:36:22;;;;;;;19.90;12.75;;;9.40;99.90;;;;;;5073803;28;20089;-89
2023/04/08 08:38:48;;;;;;;18.70;12.93;;;9.70;99.90;;;;;;5067031;28;20438;-89
2023/04/08 08:41:14;;;;;;;19.02;12.25;;;10.10;99.90;;;;;;5073180;28;20028;-89
2023/04/08 08:43:40;;;;;;;20.23;12.73;;;10.20;99.90;;;;;;5056495;28;20105;-89
2023/04/08 08:46:10;;;;;;;20.08;12.68;;;9.90;99.90;;;;;;5072843;28;20024;-88
2023/04/08 08:48:37;;;;;;;20.07;12.60;;;10.00;99.90;;;;;;5055829;28;20487;-89
2023/04/08 08:51:13;;;;;;;17.83;12.27;;;10.10;99.90;;;;;;5056183;28;20020;-89
2023/04/08 08:54:34;;;;;;;22.10;12.75;;;10.30;99.90;;;;;;5057101;28;20040;-89
2023/04/08 08:57:00;;;;;;;19.00;12.55;;;10.50;99.90;;;;;;5074270;28;20033;-89
2023/04/08 08:59:26;;;;;;;29.65;13.30;;;10.80;99.90;;;;;;5061618;28;20507;-89
2023/04/08 09:01:52;;;;;;;22.88;12.48;;;10.80;99.90;;;;;;5063195;28;20060;-88
2023/04/08 09:04:19;;;;;;;18.48;12.90;;;10.70;99.90;;;;;;5056138;28;20024;-89
2023/04/08 09:06:48;;;;;;;20.42;12.43;;;10.60;99.90;;;;;;5085899;28;20032;-89
2023/04/08 09:09:14;;;;;;;16.40;11.18;;;10.20;99.90;;;;;;5062295;28;20025;-87
2023/04/08 09:11:42;;;;;;;22.40;12.20;;;9.90;99.90;;;;;;5058908;28;20875;-88
2023/04/08 09:14:18;;;;;;;18.77;11.93;;;9.60;99.90;;;;;;5068818;28;20035;-89
2023/04/08 09:16:44;;;;;;;20.33;12.15;;;10.00;99.90;;;;;;5057925;28;20115;-88
2023/04/08 09:19:10;;;;;;;25.35;12.52;;;10.30;99.90;;;;;;5056678;28;20062;-88
2023/04/08 09:21:37;;;;;;;20.25;13.20;;;10.50;99.90;;;;;;5069354;28;20102;-89
2023/04/08 09:24:03;;;;;;;17.92;12.05;;;10.20;99.90;;;;;;5073191;28;20040;-89
2023/04/08 09:26:29;;;;;;;22.48;12.93;;;10.30;99.90;;;;;;5075526;28;20369;-88
2023/04/08 09:29:01;;;;;;;18.02;12.55;;;10.10;99.90;;;;;;5071871;28;20031;-88
2023/04/08 09:31:33;;;;;;;20.60;13.10;;;10.10;99.90;;;;;;5054088;28;20550;-88
2023/04/08 09:34:08;;;;;;;18.73;12.80;;;10.30;99.90;;;;;;5064432;28;20027;-89
2023/04/08 09:36:34;;;;;;;18.67;11.75;;;10.30;99.90;;;;;;5076532;28;20450;-89
2023/04/08 09:39:00;;;;;;;20.23;13.20;;;10.30;99.90;;;;;;5056569;28;20020;-88
2023/04/08 09:41:27;;;;;;;22.45;13.13;;;10.30;99.90;;;;;;5084066;28;20115;-89
2023/04/08 09:43:54;;;;;;;20.75;12.25;;;10.50;99.90;;;;;;5071510;28;20016;-88
2023/04/08 09:46:49;;;;;;;21.60;12.13;;;10.70;99.90;;;;;;5063438;28;20425;-88
2023/04/08 09:49:27;;;;;;;23.88;11.95;;;10.70;99.90;;;;;;5075824;28;20020;-88
2023/04/08 09:52:20;;;;;;;18.50;11.70;;;10.70;99.90;;;;;;5060234;28;20020;-88
2023/04/08 09:54:54;;;;;;;18.70;10.80;;;11.10;99.90;;;;;;5071076;28;20502;-89
2023/04/08 09:57:54;;;;;;;22.42;11.90;;;11.40;99.90;;;;;;5056293;28;20032;-89
2023/04/08 10:00:23;;;;;;;19.20;11.70;;;11.70;99.90;;;;;;5063501;28;20044;-89
2023/04/08 10:03:31;;;;;;;20.25;12.30;;;11.60;99.90;;;;;;5072977;28;20028;-89
2023/04/08 10:06:00;;;;;;;26.35;11.05;;;11.60;99.90;;;;;;5076285;28;20050;-88
2023/04/08 10:08:26;;;;;;;19.67;12.27;;;11.40;99.90;;;;;;5070203;28;20124;-88
2023/04/08 10:10:53;;;;;;;16.35;10.80;;;10.90;99.90;;;;;;5060864;28;20032;-89
2023/04/08 10:13:20;;;;;;;20.30;13.18;;;10.30;99.90;;;;;;5067271;28;20090;-88
2023/04/08 10:15:46;;;;;;;18.92;11.82;;;9.90;99.90;;;;;;5063466;28;20035;-88
2023/04/08 10:18:19;;;;;;;24.00;13.75;;;9.40;99.90;;;;;;5062338;28;20025;-88
2023/04/08 10:20:46;;;;;;;18.52;11.02;;;9.20;99.90;;;;;;5078658;28;20052;-88
2023/04/08 10:23:16;;;;;;;17.90;10.30;;;9.10;99.90;;;;;;5058529;28;20028;-88
2023/04/08 10:25:46;;;;;;;14.40;10.43;;;9.30;99.90;;;;;;5075199;28;20533;-89
2023/04/08 10:28:16;;;;;;;15.65;10.07;;;9.10;99.90;;;;;;5070589;28;20020;-89
2023/04/08 10:30:46;;;;;;;14.88;10.32;;;8.90;99.90;;;;;;5056207;28;20029;-88
2023/04/08 10:33:23;;;;;;;20.58;10.95;;;9.00;99.90;;;;;;5078870;28;20024;-88
2023/04/08 10:35:59;;;;;;;15.95;9.93;;;9.00;99.90;;;;;;5042229;28;20029;-89
2023/04/08 10:38:26;;;;;;;21.60;11.13;;;9.00;99.90;;;;;;5077347;28;20067;-88
2023/04/08 10:40:53;;;;;;;17.48;9.90;;;9.10;99.90;;;;;;5076844;28;20413;-88
2023/04/08 10:43:19;;;;;;;17.25;9.68;;;9.10;99.90;;;;;;5080764;28;20411;-88
2023/04/08 10:45:45;;;;;;;16.33;10.38;;;9.00;99.90;;;;;;5065659;28;20029;-88
2023/04/08 10:48:14;;;;;;;13.88;8.93;;;9.10;99.90;;;;;;5054650;28;20028;-88
2023/04/08 10:50:40;;;;;;;16.30;10.05;;;9.20;99.90;;;;;;5071524;28;20025;-88
2023/04/08 10:53:07;;;;;;;13.95;9.25;;;9.10;99.90;;;;;;5067448;28;20028;-89
2023/04/08 10:55:33;;;;;;;14.35;9.15;;;9.00;99.90;;;;;;5081271;28;20025;-87
2023/04/08 10:58:10;;;;;;;12.82;8.98;;;9.00;99.90;;;;;;5048698;28;20646;-88
2023/04/08 11:00:37;;;;;;;18.23;9.32;;;9.30;99.90;;;;;;5093075;28;20033;-88
2023/04/08 11:03:06;;;;;;;11.82;8.00;;;9.50;99.90;;;;;;5064769;28;20167;-89
2023/04/08 11:05:32;;;;;;;12.38;7.90;;;9.90;99.90;;;;;;5060964;28;20108;-88
2023/04/08 11:07:59;;;;;;;10.85;7.30;;;10.10;99.90;;;;;;5073139;28;20029;-88
2023/04/08 11:10:25;;;;;;;13.90;9.55;;;10.40;99.90;;;;;;5076677;28;20033;-88
2023/04/08 11:12:53;;;;;;;13.00;6.63;;;10.60;99.90;;;;;;5086217;28;20026;-88
2023/04/08 11:15:20;;;;;;;9.43;6.60;;;10.40;99.90;;;;;;5069076;28;20036;-88
2023/04/08 11:17:47;;;;;;;14.77;6.82;;;10.50;99.90;;;;;;5076480;28;20032;-87
2023/04/08 11:20:13;;;;;;;10.35;6.78;;;10.70;99.90;;;;;;5075404;28;20423;-88
2023/04/08 11:22:39;;;;;;;8.25;5.78;;;10.70;99.90;;;;;;5076434;28;20149;-89
2023/04/08 11:25:08;;;;;;;14.05;6.95;;;10.60;99.90;;;;;;5052825;28;20090;-88
2023/04/08 11:27:35;;;;;;;10.55;6.95;;;10.50;99.90;;;;;;5057354;28;20056;-88
2023/04/08 11:30:01;;;;;;;14.20;7.00;;;10.70;99.90;;;;;;5058388;28;20032;-88
2023/04/08 11:32:30;;;;;;;11.85;6.57;;;10.70;99.90;;;;;;5075366;28;20112;-88
2023/04/08 11:34:58;;;;;;;13.18;5.85;;;10.90;99.90;;;;;;5074706;28;20028;-88
2023/04/08 11:37:25;;;;;;;10.68;6.05;;;11.20;99.90;;;;;;5057773;28;20032;-89
2023/04/08 11:39:53;;;;;;;13.88;6.43;;;11.50;99.90;;;;;;5084709;28;20161;-88
2023/04/08 11:42:26;;;;;;;8.70;5.80;;;11.60;99.90;;;;;;5081220;28;20490;-88
2023/04/08 11:44:52;;;;;;;7.97;5.18;;;11.60;99.90;;;;;;5074985;28;20078;-89
2023/04/08 11:47:17;;;;;;;10.40;5.40;;;11.70;99.90;;;;;;5087052;28;20080;-89
2023/04/08 11:49:44;;;;;;;9.00;7.10;;;12.00;99.90;;;;;;5060807;28;20025;-89
2023/04/08 11:52:10;;;;;;;7.00;4.20;;;12.30;99.90;;;;;;5066996;28;20024;-89
2023/04/08 11:54:41;;;;;;;7.13;5.57;;;12.70;99.90;;;;;;5071363;28;20031;-88
2023/04/08 11:57:08;;;;;;;10.32;5.63;;;12.60;99.90;;;;;;5080265;28;20031;-89
2023/04/08 11:59:35;;;;;;;11.07;5.13;;;12.50;99.90;;;;;;5060408;28;20036;-88
2023/04/08 12:02:04;;;;;;;8.63;5.10;;;12.20;99.90;;;;;;5082908;28;20035;-88
2023/04/08 12:04:31;;;;;;;11.15;6.10;;;11.70;99.90;;;;;;5063974;28;20033;-88
2023/04/08 12:06:56;;;;;;;10.00;5.85;;;11.30;99.90;;;;;;5070914;28;20021;-88
2023/04/08 12:09:22;;;;;;;11.15;5.85;;;11.40;99.90;;;;;;5073748;28;20536;-89
2023/04/08 12:11:48;;;;;;;10.93;5.80;;;11.20;99.90;;;;;;5081944;28;20518;-89
2023/04/08 12:14:14;;;;;;;10.75;5.85;;;11.30;99.90;;;;;;5067372;28;20020;-88
2023/04/08 12:16:39;;;;;;;11.95;6.65;;;11.30;99.90;;;;;;5060190;28;20115;-88
2023/04/08 12:19:23;;;;;;;11.30;7.10;;;11.30;99.90;;;;;;5062752;28;20063;-88
2023/04/08 12:21:49;;;;;;;19.02;7.95;;;11.50;99.90;;;;;;5080376;28;20036;-88
2023/04/08 12:24:15;;;;;;;12.65;6.50;;;11.40;99.90;;;;;;5070906;28;20036;-88
2023/04/08 12:26:42;;;;;;;10.65;5.90;;;11.30;99.90;;;;;;5049767;28;20729;-89
2023/04/08 12:29:57;;;;;;;8.85;6.00;;;11.30;99.90;;;;;;5074181;28;20017;-88
2023/04/08 12:32:46;;;;;;;9.75;5.80;;;11.70;99.90;;;;;;5079146;28;20380;-88
2023/04/08 12:35:12;;;;;;;7.85;5.90;;;12.00;99.90;;;;;;5067872;28;20075;-89
2023/04/08 12:37:37;;;;;;;9.02;6.07;;;12.40;99.90;;;;;;5071276;28;20025;-88
2023/04/08 12:40:03;;;;;;;9.95;5.78;;;12.00;99.90;;;;;;5057445;28;20101;-88